Time;durP1;ratioP1;P1;durP2;ratioP2;P2;SDS_P1;SDS_P2;PMS_P1;PMS_P2;Temp;Humidity;BMP_temperature;BMP_pressure;BME280_temperature;BME280_humidity;BME280_pressure;Samples;Min_cycle;Max_cycle;Signal;HPM_P1;HPM_P2
2022/05/02 00:01:27;;;;;;;20.50;15.13;;;12.10;99.70;;;;;;4980735;28;20141;-84
2022/05/02 00:03:52;;;;;;;17.85;13.73;;;12.10;99.70;;;;;;5000350;28;20050;-84
2022/05/02 00:06:18;;;;;;;17.85;14.02;;;12.00;99.70;;;;;;4981144;28;20027;-88
2022/05/02 00:08:43;;;;;;;20.45;14.43;;;12.00;99.80;;;;;;4984464;28;20031;-87
2022/05/02 00:11:09;;;;;;;20.33;13.32;;;12.00;99.90;;;;;;5001310;28;20088;-86
2022/05/02 00:13:35;;;;;;;17.83;13.20;;;12.00;99.90;;;;;;4983154;28;20030;-83
2022/05/02 00:16:00;;;;;;;17.33;13.50;;;12.00;99.90;;;;;;4999951;28;20023;-88
2022/05/02 00:18:28;;;;;;;19.20;13.75;;;11.90;99.90;;;;;;4998964;28;20030;-86
2022/05/02 00:20:53;;;;;;;19.55;13.38;;;11.90;99.90;;;;;;4999734;28;20030;-84
2022/05/02 00:23:19;;;;;;;18.85;13.20;;;11.90;99.90;;;;;;4980832;28;20379;-84
2022/05/02 00:25:45;;;;;;;17.33;12.63;;;11.90;99.90;;;;;;4981244;28;20173;-87
2022/05/02 00:28:13;;;;;;;16.80;12.10;;;11.90;99.90;;;;;;4987426;28;20307;-87
2022/05/02 00:30:39;;;;;;;15.63;11.05;;;11.90;99.90;;;;;;4999630;28;20026;-87
2022/05/02 00:33:05;;;;;;;16.45;11.82;;;11.90;99.90;;;;;;4997522;28;20117;-87
2022/05/02 00:35:31;;;;;;;15.23;11.60;;;11.80;99.90;;;;;;4979491;28;20066;-88
2022/05/02 00:37:56;;;;;;;14.70;11.88;;;11.80;99.90;;;;;;4998534;28;20023;-87
2022/05/02 00:40:23;;;;;;;16.00;12.00;;;11.80;99.90;;;;;;4997400;28;20026;-88
2022/05/02 00:42:49;;;;;;;13.27;10.98;;;11.80;99.90;;;;;;4962444;28;20081;-83
2022/05/02 00:45:16;;;;;;;15.48;10.98;;;11.80;99.90;;;;;;4981169;28;20415;-87
2022/05/02 00:47:55;;;;;;;13.88;11.38;;;11.80;99.90;;;;;;4998032;28;20383;-84
2022/05/02 00:50:34;;;;;;;11.32;10.07;;;11.70;99.90;;;;;;4981456;28;20427;-88
2022/05/02 00:53:01;;;;;;;13.38;10.68;;;11.70;99.90;;;;;;4983930;28;20545;-87
2022/05/02 00:55:28;;;;;;;12.70;10.70;;;11.80;99.90;;;;;;4998601;28;20076;-84
2022/05/02 00:57:54;;;;;;;13.32;10.70;;;11.70;99.90;;;;;;4996998;28;20062;-86
2022/05/02 01:00:20;;;;;;;12.80;10.55;;;11.70;99.90;;;;;;4965479;28;20026;-86
2022/05/02 01:02:45;;;;;;;14.57;10.70;;;11.80;99.90;;;;;;4995146;28;20034;-86
2022/05/02 01:05:11;;;;;;;13.60;10.60;;;11.70;99.90;;;;;;4996363;28;20113;-86
2022/05/02 01:07:38;;;;;;;15.10;10.63;;;11.70;99.90;;;;;;4992605;28;20038;-86
2022/05/02 01:10:03;;;;;;;15.20;10.52;;;11.60;99.90;;;;;;4983926;28;20030;-83
2022/05/02 01:12:29;;;;;;;14.82;10.88;;;11.60;99.90;;;;;;4998004;28;20015;-87
2022/05/02 01:14:57;;;;;;;14.07;10.70;;;11.60;99.90;;;;;;4997406;28;20027;-86
2022/05/02 01:17:23;;;;;;;13.55;10.90;;;11.60;99.90;;;;;;4997279;28;20050;-84
2022/05/02 01:19:50;;;;;;;12.00;10.30;;;11.60;99.90;;;;;;4980213;28;20034;-85
2022/05/02 01:22:16;;;;;;;13.68;10.48;;;11.50;99.90;;;;;;4995627;28;20161;-84
2022/05/02 01:24:44;;;;;;;13.30;10.88;;;11.50;99.90;;;;;;4990944;28;20041;-83
2022/05/02 01:27:11;;;;;;;13.60;11.00;;;11.50;99.90;;;;;;4993830;28;20057;-87
2022/05/02 01:29:38;;;;;;;13.32;10.52;;;11.50;99.90;;;;;;4994663;28;20022;-83
2022/05/02 01:32:12;;;;;;;13.77;10.90;;;11.50;99.90;;;;;;4996555;28;20019;-87
2022/05/02 01:34:42;;;;;;;15.40;11.18;;;11.50;99.90;;;;;;4996213;28;20065;-87
2022/05/02 01:37:10;;;;;;;14.23;11.55;;;11.50;99.90;;;;;;4997457;28;20026;-85
2022/05/02 01:39:35;;;;;;;14.55;11.75;;;11.40;99.90;;;;;;4981372;28;20034;-85
2022/05/02 01:42:02;;;;;;;14.60;11.38;;;11.40;99.90;;;;;;4996550;28;20095;-83
2022/05/02 01:44:28;;;;;;;13.77;10.95;;;11.40;99.90;;;;;;4997080;28;20027;-87
2022/05/02 01:46:54;;;;;;;15.70;11.38;;;11.40;99.90;;;;;;4998594;28;20057;-87
2022/05/02 01:49:20;;;;;;;14.90;11.18;;;11.40;99.90;;;;;;4980257;28;20034;-87
2022/05/02 01:51:46;;;;;;;15.57;12.07;;;11.40;99.90;;;;;;4997598;28;20097;-87
2022/05/02 01:54:12;;;;;;;16.67;12.40;;;11.40;99.90;;;;;;4981173;28;20065;-84
2022/05/02 01:56:38;;;;;;;17.33;12.98;;;11.30;99.90;;;;;;4995614;28;20157;-83
2022/05/02 01:59:04;;;;;;;28.80;14.10;;;11.40;99.90;;;;;;4993589;28;20084;-82
2022/05/02 02:01:30;;;;;;;18.95;13.93;;;11.40;99.90;;;;;;5003266;28;20038;-86
2022/05/02 02:03:58;;;;;;;15.48;11.90;;;11.40;99.90;;;;;;4980655;28;20048;-86
2022/05/02 02:06:23;;;;;;;18.98;14.30;;;11.40;99.90;;;;;;4979005;28;20121;-83
2022/05/02 02:08:50;;;;;;;22.40;16.50;;;11.40;99.90;;;;;;4981874;28;20065;-87
2022/05/02 02:11:15;;;;;;;20.73;15.40;;;11.40;99.90;;;;;;4991589;28;20141;-87
2022/05/02 02:13:41;;;;;;;21.67;16.00;;;11.40;99.90;;;;;;4973947;28;20026;-86
2022/05/02 02:16:10;;;;;;;22.33;15.93;;;11.40;99.90;;;;;;4993875;28;20018;-86
2022/05/02 02:18:38;;;;;;;25.92;16.73;;;11.40;99.90;;;;;;4994744;28;20105;-86
2022/05/02 02:21:04;;;;;;;22.73;17.02;;;11.40;99.90;;;;;;4987517;28;20420;-83
2022/05/02 02:23:30;;;;;;;25.08;17.70;;;11.40;99.90;;;;;;4993961;28;20029;-87
2022/05/02 02:25:56;;;;;;;23.70;17.55;;;11.40;99.90;;;;;;4973436;28;20400;-87
2022/05/02 02:28:21;;;;;;;24.55;17.23;;;11.40;99.90;;;;;;4993687;28;20033;-86
2022/05/02 02:30:47;;;;;;;24.25;17.50;;;11.40;99.90;;;;;;4996321;28;20497;-87
2022/05/02 02:33:13;;;;;;;23.40;17.33;;;11.40;99.90;;;;;;4996097;28;20062;-87
2022/05/02 02:35:39;;;;;;;26.25;18.52;;;11.40;99.90;;;;;;4997128;28;20525;-83
2022/05/02 02:38:05;;;;;;;24.10;17.58;;;11.40;99.90;;;;;;4996566;28;20026;-85
2022/05/02 02:40:31;;;;;;;22.63;16.25;;;11.40;99.90;;;;;;4978744;28;20436;-84
2022/05/02 02:42:57;;;;;;;25.10;17.15;;;11.40;99.90;;;;;;4989676;28;20023;-85
2022/05/02 02:45:22;;;;;;;21.48;16.48;;;11.40;99.90;;;;;;4962174;28;20035;-87
2022/05/02 02:47:48;;;;;;;21.80;16.48;;;11.40;99.90;;;;;;4996694;28;20019;-86
2022/05/02 02:50:14;;;;;;;24.52;17.45;;;11.40;99.90;;;;;;4978769;28;20163;-87
2022/05/02 02:52:39;;;;;;;22.38;17.42;;;11.30;99.90;;;;;;4996261;28;20105;-87
2022/05/02 02:55:05;;;;;;;26.00;16.90;;;11.30;99.90;;;;;;4993615;28;20041;-83
2022/05/02 02:57:31;;;;;;;24.33;17.45;;;11.30;99.90;;;;;;4996305;28;20022;-85
2022/05/02 02:59:56;;;;;;;23.35;16.83;;;11.20;99.90;;;;;;4990560;28;20027;-85
2022/05/02 03:02:22;;;;;;;23.88;16.88;;;11.20;99.90;;;;;;5011270;28;20019;-83
2022/05/02 03:07:32;;;;;;;27.05;18.23;;;11.10;99.90;;;;;;5002217;28;20045;-88
2022/05/02 03:09:58;;;;;;;27.25;18.10;;;11.00;99.90;;;;;;5001677;28;20022;-86
2022/05/02 03:12:25;;;;;;;29.85;19.33;;;10.90;99.90;;;;;;4982953;28;20019;-87
2022/05/02 03:14:50;;;;;;;27.25;18.33;;;10.90;99.90;;;;;;4999532;28;20080;-84
2022/05/02 03:17:16;;;;;;;28.33;18.42;;;10.80;99.90;;;;;;4995348;28;20054;-86
2022/05/02 03:19:42;;;;;;;27.70;18.90;;;10.80;99.90;;;;;;4976294;28;20467;-86
2022/05/02 03:22:08;;;;;;;30.40;19.40;;;10.80;99.90;;;;;;4981514;28;20042;-84
2022/05/02 03:24:33;;;;;;;25.48;18.38;;;10.70;99.90;;;;;;4999288;28;20108;-85
2022/05/02 03:26:59;;;;;;;24.52;17.40;;;10.70;99.90;;;;;;4998771;28;20097;-85
2022/05/02 03:29:24;;;;;;;24.13;17.10;;;10.60;99.90;;;;;;4979946;28;20487;-85
2022/05/02 03:42:46;;;;;;;26.17;17.27;;;10.50;99.90;;;;;;5612488;22;20034;-91
2022/05/02 03:45:41;;;;;;;21.60;15.82;;;10.50;99.90;;;;;;5000059;28;20042;-91
2022/05/02 03:48:44;;;;;;;27.13;17.05;;;10.40;99.90;;;;;;4993898;28;20040;-91
2022/05/02 03:51:19;;;;;;;24.77;16.85;;;10.40;99.90;;;;;;4984034;28;20050;-92
2022/05/02 03:53:58;;;;;;;21.63;16.40;;;10.30;99.90;;;;;;4985879;28;20026;-92
2022/05/02 03:57:00;;;;;;;25.35;16.30;;;10.30;99.90;;;;;;4981848;28;20022;-92
2022/05/02 03:59:49;;;;;;;;;;;;;;;;;;;;;
2022/05/02 04:02:37;;;;;;;22.02;16.35;;;10.20;99.90;;;;;;5003761;28;20086;-92
2022/05/02 04:05:10;;;;;;;22.30;16.05;;;10.20;99.90;;;;;;4981819;28;20027;-92
2022/05/02 04:11:22;;;;;;;;;;;;;;;;;;;;;
2022/05/02 04:13:57;;;;;;;21.23;14.73;;;10.10;99.90;;;;;;4938531;29;20875;-92
2022/05/02 04:16:24;;;;;;;20.90;14.50;;;10.10;99.90;;;;;;4983256;28;20041;-92
2022/05/02 04:19:27;;;;;;;17.00;13.52;;;10.00;99.90;;;;;;4983714;28;20136;-93
2022/05/02 04:22:12;;;;;;;17.92;13.68;;;10.00;99.90;;;;;;4990631;28;20197;-92
2022/05/02 04:27:33;;;;;;;14.93;11.70;;;9.90;99.90;;;;;;5003781;28;20116;-92
2022/05/02 04:30:12;;;;;;;14.88;11.30;;;9.90;99.90;;;;;;4984665;28;20030;-92
2022/05/02 04:32:54;;;;;;;14.55;10.57;;;9.90;99.90;;;;;;4996152;28;20034;-93
2022/05/02 04:35:31;;;;;;;14.90;11.00;;;9.90;99.90;;;;;;4984408;28;20023;-93
2022/05/02 04:38:06;;;;;;;14.00;10.63;;;9.90;99.90;;;;;;4982223;28;20029;-93
2022/05/02 04:40:44;;;;;;;12.27;9.95;;;9.80;99.90;;;;;;4981339;28;20034;-93
2022/05/02 04:43:34;;;;;;;12.98;10.27;;;9.90;99.90;;;;;;4981727;28;20038;-93
2022/05/02 04:46:18;;;;;;;13.15;10.50;;;9.90;99.90;;;;;;4998321;28;20034;-92
2022/05/02 04:48:55;;;;;;;12.68;10.52;;;9.90;99.90;;;;;;4985565;28;20038;-93
2022/05/02 04:51:27;;;;;;;12.65;9.82;;;9.90;99.90;;;;;;4991169;28;20038;-93
2022/05/02 04:57:29;;;;;;;15.05;10.35;;;10.00;99.90;;;;;;4966873;28;20851;-93
2022/05/02 05:00:22;;;;;;;;;;;;;;;;;;;;;
2022/05/02 05:03:11;;;;;;;13.20;10.52;;;10.00;99.90;;;;;;5013060;28;20046;-94
2022/05/02 05:06:05;;;;;;;12.57;10.13;;;10.00;99.90;;;;;;5008669;28;20046;-94
2022/05/02 05:08:38;;;;;;;12.10;9.77;;;10.10;99.90;;;;;;4999383;28;20034;-93
2022/05/02 05:12:06;;;;;;;11.70;10.38;;;10.10;99.90;;;;;;4999831;28;20038;-94
2022/05/02 05:18:20;;;;;;;14.20;10.87;;;10.30;99.90;;;;;;5008691;28;20030;-92
2022/05/02 05:21:18;;;;;;;14.98;12.13;;;10.40;99.90;;;;;;5004661;28;20086;-93
2022/05/02 05:24:15;;;;;;;15.02;11.85;;;10.50;99.90;;;;;;4989321;28;20042;-93
2022/05/02 05:27:19;;;;;;;17.15;12.35;;;10.60;99.90;;;;;;4998636;28;20023;-93
2022/05/02 05:30:16;;;;;;;15.38;11.43;;;10.70;99.90;;;;;;4999417;28;20026;-93
2022/05/02 05:33:37;;;;;;;16.55;12.90;;;10.80;99.90;;;;;;4993461;28;20090;-93
2022/05/02 05:36:30;;;;;;;17.65;13.95;;;10.90;99.90;;;;;;5001578;28;20057;-94
2022/05/02 05:39:21;;;;;;;;;;;;;;;;;;;;;
2022/05/02 05:42:32;;;;;;;19.58;12.82;;;11.00;99.90;;;;;;4995364;28;20057;-93
2022/05/02 05:45:12;;;;;;;21.38;14.13;;;11.10;99.90;;;;;;4947311;29;20067;-93
2022/05/02 05:48:12;;;;;;;17.48;13.73;;;11.20;99.90;;;;;;4986050;28;20502;-92
2022/05/02 05:51:34;;;;;;;18.50;13.90;;;11.30;99.90;;;;;;4972754;28;20035;-91
2022/05/02 05:54:24;;;;;;;21.38;14.05;;;11.40;99.90;;;;;;4967972;28;20054;-93
2022/05/02 05:57:08;;;;;;;19.92;14.43;;;11.50;99.90;;;;;;4974419;28;20015;-92
2022/05/02 06:00:01;;;;;;;21.60;15.55;;;11.50;99.90;;;;;;4986044;28;20028;-93
2022/05/02 06:03:27;;;;;;;20.33;16.13;;;11.60;99.90;;;;;;4982054;28;20037;-93
2022/05/02 06:06:07;;;;;;;19.88;14.98;;;11.80;99.90;;;;;;4917432;29;20047;-93
2022/05/02 06:08:53;;;;;;;22.60;17.70;;;11.90;99.90;;;;;;4913019;29;20136;-93
2022/05/02 06:11:26;;;;;;;23.42;17.42;;;12.10;99.90;;;;;;4967740;28;20042;-92
2022/05/02 06:14:10;;;;;;;22.63;16.70;;;12.20;99.90;;;;;;4987997;28;20090;-92
2022/05/02 06:19:38;;;;;;;21.80;15.95;;;12.50;99.90;;;;;;4999871;28;20036;-92
2022/05/02 06:22:12;;;;;;;21.45;16.05;;;12.60;99.90;;;;;;4988681;28;20090;-92
2022/05/02 06:24:55;;;;;;;21.05;16.15;;;12.60;99.90;;;;;;4984904;28;20038;-93
2022/05/02 06:27:43;;;;;;;21.90;15.18;;;12.70;99.90;;;;;;4986152;28;20070;-93
2022/05/02 06:30:31;;;;;;;21.80;15.85;;;12.90;99.90;;;;;;4983311;28;20049;-93
2022/05/02 06:33:13;;;;;;;17.17;14.32;;;13.00;99.90;;;;;;4989281;28;20125;-93
2022/05/02 06:39:18;;;;;;;17.48;14.10;;;13.30;99.90;;;;;;5003460;28;20034;-91
2022/05/02 06:42:13;;;;;;;18.52;14.75;;;13.40;99.90;;;;;;4977672;28;20026;-91
2022/05/02 06:45:01;;;;;;;16.88;13.45;;;13.50;99.90;;;;;;4995412;28;20026;-91
2022/05/02 06:47:48;;;;;;;17.52;14.07;;;13.70;99.90;;;;;;4980300;28;20025;-91
2022/05/02 06:50:47;;;;;;;16.08;13.20;;;13.80;99.90;;;;;;4990267;28;20109;-95
2022/05/02 09:17:16;;;;;;;8.63;7.45;;;25.30;69.40;;;;;;4997037;28;20506;-89
2022/05/02 09:20:58;;;;;;;9.13;7.43;;;25.60;68.00;;;;;;4959126;28;20055;-89
2022/05/02 09:33:58;;;;;;;7.93;7.13;;;28.40;60.70;;;;;;5022713;23;20061;-88
2022/05/02 09:36:29;;;;;;;8.45;6.93;;;29.20;58.40;;;;;;4975913;28;20055;-87
2022/05/02 09:39:18;;;;;;;6.90;6.20;;;28.00;57.80;;;;;;4980983;28;20101;-88
2022/05/02 09:42:14;;;;;;;7.75;6.72;;;27.00;58.20;;;;;;4968756;28;20061;-87
2022/05/02 09:51:13;;;;;;;6.97;6.25;;;24.60;60.60;;;;;;4974610;28;20077;-88
2022/05/02 09:54:01;;;;;;;8.63;6.90;;;23.80;61.00;;;;;;4978292;28;20022;-87
2022/05/02 09:56:39;;;;;;;8.23;6.53;;;23.20;61.70;;;;;;4977779;28;20107;-87
2022/05/02 09:59:30;;;;;;;8.15;6.70;;;22.70;62.40;;;;;;4975499;28;20426;-88
2022/05/02 10:02:05;;;;;;;9.88;7.53;;;22.30;63.00;;;;;;4974979;28;20018;-87
2022/05/02 10:04:47;;;;;;;9.88;6.47;;;21.90;63.60;;;;;;4980900;28;20483;-87
2022/05/02 10:07:18;;;;;;;8.30;6.65;;;21.60;63.80;;;;;;4982396;28;20023;-87
2022/05/02 10:09:59;;;;;;;8.40;7.25;;;21.40;64.70;;;;;;4975516;28;20048;-86
2022/05/02 10:12:30;;;;;;;10.02;6.10;;;22.00;64.00;;;;;;4990907;28;20409;-85
2022/05/02 10:15:29;;;;;;;9.40;5.80;;;22.80;62.20;;;;;;4984981;28;20351;-86
2022/05/02 10:18:11;;;;;;;9.20;5.45;;;23.10;60.90;;;;;;4972640;28;20097;-86
2022/05/02 10:21:02;;;;;;;7.03;5.93;;;22.80;61.90;;;;;;4970576;28;20516;-84
2022/05/02 10:23:27;;;;;;;9.30;5.72;;;22.60;62.40;;;;;;4979971;28;20031;-83
2022/05/02 10:26:19;;;;;;;6.28;5.28;;;22.40;62.60;;;;;;4987752;28;20045;-83
2022/05/02 10:29:04;;;;;;;10.90;5.25;;;22.50;62.10;;;;;;4994892;28;20054;-86
2022/05/02 10:31:34;;;;;;;6.32;5.50;;;22.30;62.90;;;;;;4976301;28;20082;-84
2022/05/02 10:34:02;;;;;;;5.95;5.10;;;22.00;62.70;;;;;;4984070;28;20038;-84
2022/05/02 10:36:35;;;;;;;9.38;5.45;;;21.70;62.70;;;;;;4973731;28;20022;-84
2022/05/02 10:39:16;;;;;;;7.90;5.65;;;21.50;63.20;;;;;;4956256;28;20403;-85
2022/05/02 10:41:48;;;;;;;8.80;5.45;;;21.30;63.70;;;;;;4983091;28;20034;-86
2022/05/02 10:44:17;;;;;;;6.57;4.85;;;21.10;64.10;;;;;;4990104;28;20214;-85
2022/05/02 10:46:46;;;;;;;5.40;4.90;;;21.10;64.00;;;;;;4973958;28;20034;-86
2022/05/02 10:49:26;;;;;;;6.72;5.63;;;21.20;64.20;;;;;;4996647;28;20182;-84
2022/05/02 10:52:01;;;;;;;7.38;5.63;;;21.30;63.80;;;;;;4993374;28;20085;-84
2022/05/02 10:54:46;;;;;;;6.85;5.90;;;21.20;63.90;;;;;;4989415;28;20416;-86
2022/05/02 10:57:11;;;;;;;7.85;5.18;;;21.20;63.80;;;;;;4974176;28;20026;-83
2022/05/02 10:59:44;;;;;;;6.07;5.45;;;21.60;63.70;;;;;;4975678;28;20125;-89
2022/05/02 11:02:49;;;;;;;8.60;5.55;;;22.00;63.40;;;;;;4971095;28;20037;-86
2022/05/02 11:05:17;;;;;;;6.45;4.95;;;22.40;63.30;;;;;;4969165;28;20522;-87
2022/05/02 11:07:54;;;;;;;5.38;4.65;;;22.40;63.30;;;;;;4962175;28;20061;-86
2022/05/02 11:10:23;;;;;;;5.85;4.93;;;22.20;63.50;;;;;;4988243;28;20033;-86
2022/05/02 11:13:20;;;;;;;5.40;4.90;;;22.00;63.00;;;;;;4986240;28;21386;-88
2022/05/02 11:16:04;;;;;;;5.13;4.57;;;22.00;62.70;;;;;;4959799;28;20105;-86
2022/05/02 11:21:39;;;;;;;5.00;4.50;;;22.00;62.80;;;;;;4994559;28;20454;-86
2022/05/02 11:24:22;;;;;;;6.63;5.20;;;22.30;62.90;;;;;;4975098;28;20053;-88
2022/05/02 11:26:58;;;;;;;6.70;5.30;;;22.30;62.40;;;;;;4977328;28;20542;-88
2022/05/02 11:29:45;;;;;;;6.20;5.60;;;22.20;62.80;;;;;;4980274;28;20038;-88
2022/05/02 11:32:27;;;;;;;6.07;5.38;;;22.00;63.00;;;;;;4987217;28;20019;-88
2022/05/02 11:35:12;;;;;;;6.95;5.47;;;21.80;62.50;;;;;;4990860;28;20019;-87
2022/05/02 11:37:52;;;;;;;5.78;5.20;;;21.60;62.60;;;;;;5008360;28;20107;-81
2022/05/02 11:40:27;;;;;;;5.85;5.28;;;21.40;63.00;;;;;;5012271;28;20542;-87
2022/05/02 11:42:53;;;;;;;6.65;5.15;;;21.20;63.20;;;;;;5004045;28;20018;-84
2022/05/02 11:45:30;;;;;;;5.38;4.88;;;21.10;63.40;;;;;;4983518;28;20399;-84
2022/05/02 11:48:20;;;;;;;8.20;5.53;;;21.10;63.60;;;;;;4976895;28;20058;-86
2022/05/02 11:50:48;;;;;;;5.65;5.07;;;20.90;64.10;;;;;;4980326;28;20038;-84
2022/05/02 11:53:16;;;;;;;8.63;5.03;;;20.70;63.90;;;;;;4981078;28;20054;-85
2022/05/02 11:55:45;;;;;;;6.00;5.00;;;20.60;64.20;;;;;;4989302;28;20044;-83
2022/05/02 11:58:23;;;;;;;6.57;5.70;;;20.60;64.40;;;;;;4979885;28;20121;-89
2022/05/02 12:00:55;;;;;;;8.18;5.85;;;20.50;64.20;;;;;;4992441;28;20093;-88
2022/05/02 12:03:25;;;;;;;6.53;5.30;;;20.50;64.70;;;;;;4980866;28;20026;-86
2022/05/02 12:06:04;;;;;;;6.10;5.50;;;20.50;64.60;;;;;;4980153;28;20133;-89
2022/05/02 12:08:46;;;;;;;6.47;5.20;;;20.60;64.50;;;;;;4972574;28;20030;-87
2022/05/02 12:11:15;;;;;;;6.13;5.07;;;20.70;63.90;;;;;;4979479;28;20102;-88
2022/05/02 12:13:45;;;;;;;6.65;5.07;;;20.80;63.90;;;;;;4980198;28;20035;-90
2022/05/02 12:16:18;;;;;;;6.72;5.05;;;21.00;63.60;;;;;;4996063;28;20022;-88
2022/05/02 12:18:55;;;;;;;6.82;5.15;;;21.00;63.20;;;;;;4981551;28;20553;-88
2022/05/02 12:21:31;;;;;;;5.45;4.95;;;21.00;63.20;;;;;;4980145;28;20031;-89
2022/05/02 12:23:58;;;;;;;7.40;5.40;;;20.90;63.30;;;;;;4978561;28;20387;-88
2022/05/02 12:26:25;;;;;;;7.45;5.85;;;20.90;63.50;;;;;;4982126;28;20185;-88
2022/05/02 12:28:58;;;;;;;6.43;5.68;;;20.90;63.50;;;;;;4973338;28;20027;-87
2022/05/02 12:31:26;;;;;;;9.93;5.80;;;20.90;64.20;;;;;;4996186;28;20033;-88
2022/05/02 12:34:11;;;;;;;7.40;5.35;;;21.00;64.10;;;;;;4983680;28;20513;-89
2022/05/02 12:36:47;;;;;;;7.95;6.30;;;21.30;64.50;;;;;;4976455;28;20033;-88
2022/05/02 12:39:24;;;;;;;6.40;5.45;;;21.50;63.70;;;;;;4988198;28;20097;-87
2022/05/02 12:41:59;;;;;;;6.63;5.00;;;21.80;63.50;;;;;;4982317;28;20298;-89
2022/05/02 12:44:41;;;;;;;5.55;5.05;;;22.00;63.10;;;;;;4978610;28;20049;-87
2022/05/02 12:47:15;;;;;;;7.75;5.70;;;22.00;62.80;;;;;;4984301;28;20037;-86
2022/05/02 12:50:00;;;;;;;6.07;5.30;;;21.90;62.50;;;;;;4963846;28;20031;-85
2022/05/02 12:52:28;;;;;;;7.85;4.95;;;21.80;62.40;;;;;;5000084;28;20098;-82
2022/05/02 12:54:54;;;;;;;7.72;4.90;;;21.80;62.70;;;;;;5013043;28;20015;-86
2022/05/02 13:00:37;;;;;;;5.07;4.60;;;21.70;61.60;;;;;;4997237;28;20033;-85
2022/05/02 13:03:17;;;;;;;6.82;4.78;;;21.70;62.80;;;;;;4976603;28;20113;-87
2022/05/02 13:05:46;;;;;;;6.85;5.15;;;21.70;62.50;;;;;;4994435;28;20026;-86
2022/05/02 13:08:19;;;;;;;6.43;4.40;;;21.70;62.10;;;;;;4982239;28;20153;-86
2022/05/02 13:10:49;;;;;;;5.47;4.97;;;21.70;62.80;;;;;;4980132;28;20073;-84
2022/05/02 13:13:17;;;;;;;6.70;5.53;;;21.70;62.80;;;;;;4997956;28;20034;-86
2022/05/02 13:15:43;;;;;;;6.20;5.57;;;21.60;62.60;;;;;;4990879;28;20025;-85
2022/05/02 13:18:14;;;;;;;6.20;4.75;;;21.50;62.70;;;;;;4994607;28;20479;-91
2022/05/02 13:20:44;;;;;;;7.10;5.15;;;21.40;62.70;;;;;;4977548;28;20125;-90
2022/05/02 13:23:13;;;;;;;6.82;4.82;;;21.40;62.40;;;;;;4972480;28;20034;-90
2022/05/02 13:25:53;;;;;;;4.93;4.43;;;21.30;62.20;;;;;;4985691;28;20019;-90
2022/05/02 13:28:26;;;;;;;4.78;4.28;;;21.20;61.90;;;;;;4973546;28;20042;-91
2022/05/02 13:31:13;;;;;;;5.35;4.63;;;21.10;62.00;;;;;;4974209;28;20117;-90
2022/05/02 13:33:49;;;;;;;5.10;4.47;;;21.10;61.80;;;;;;4977603;28;20030;-90
2022/05/02 13:36:15;;;;;;;4.63;4.20;;;21.10;62.00;;;;;;4980696;28;20038;-91
2022/05/02 13:39:00;;;;;;;6.78;4.32;;;21.00;62.30;;;;;;4967029;28;20031;-90
2022/05/02 13:41:48;;;;;;;4.72;4.07;;;21.00;62.20;;;;;;4982074;28;20030;-90
2022/05/02 13:44:18;;;;;;;4.53;4.00;;;21.10;62.20;;;;;;4976817;28;20038;-90
2022/05/02 13:47:00;;;;;;;5.38;4.47;;;21.10;62.00;;;;;;4992375;28;20018;-90
2022/05/02 13:49:49;;;;;;;5.63;4.30;;;21.10;61.50;;;;;;4981353;28;20218;-92
2022/05/02 13:52:42;;;;;;;5.45;4.10;;;21.10;62.00;;;;;;4977031;28;20087;-90
2022/05/02 13:55:33;;;;;;;4.13;3.80;;;21.20;62.20;;;;;;4982612;28;20026;-93
2022/05/02 13:58:29;;;;;;;7.78;4.10;;;21.20;62.20;;;;;;4973805;28;20447;-92
2022/05/02 14:01:29;;;;;;;5.55;4.18;;;21.30;62.30;;;;;;4983607;28;20021;-90
2022/05/02 14:07:14;;;;;;;4.45;4.05;;;21.40;61.90;;;;;;4991135;28;20033;-90
2022/05/02 14:09:41;;;;;;;5.22;4.72;;;21.40;62.60;;;;;;4987353;28;20038;-91
2022/05/02 14:12:28;;;;;;;6.68;4.30;;;21.40;62.80;;;;;;4977160;28;20443;-91
2022/05/02 14:15:14;;;;;;;5.18;4.47;;;21.40;62.80;;;;;;4979785;28;20125;-92
2022/05/02 14:17:45;;;;;;;5.13;4.00;;;21.40;62.00;;;;;;4981682;28;20017;-91
2022/05/02 14:20:32;;;;;;;6.88;4.68;;;21.40;62.40;;;;;;5001341;28;20053;-92
2022/05/02 14:23:03;;;;;;;6.75;4.45;;;21.40;62.30;;;;;;4991921;28;20439;-92
2022/05/02 14:25:46;;;;;;;5.20;4.45;;;21.40;62.40;;;;;;4965813;28;20085;-93
2022/05/02 14:28:37;;;;;;;4.63;4.10;;;21.30;62.10;;;;;;4994913;28;20339;-92
2022/05/02 14:31:38;;;;;;;6.10;4.30;;;21.30;62.00;;;;;;4981204;28;20049;-93
2022/05/02 14:42:01;;;;;;;4.00;3.38;;;21.00;61.60;;;;;;5041760;22;20060;-86
2022/05/02 14:45:10;;;;;;;3.88;3.58;;;21.00;61.50;;;;;;5016750;28;20040;-86
2022/05/02 14:58:22;;;;;;;5.13;3.92;;;21.00;62.10;;;;;;4954270;28;20087;-87
2022/05/02 15:01:14;;;;;;;4.05;3.65;;;21.00;61.60;;;;;;5016352;28;20029;-87
2022/05/02 15:03:58;;;;;;;4.03;3.63;;;21.00;61.60;;;;;;5019647;28;20435;-87
2022/05/02 15:06:38;;;;;;;3.67;3.38;;;21.00;61.70;;;;;;5024698;28;20029;-87
2022/05/02 15:13:29;;;;;;;5.07;3.97;;;21.00;61.30;;;;;;5066120;28;20047;-86
2022/05/02 15:16:25;;;;;;;4.90;4.03;;;21.00;61.30;;;;;;4940210;29;20100;-86
2022/05/02 15:19:33;;;;;;;4.13;3.47;;;20.90;61.30;;;;;;5024119;23;20132;-85
2022/05/02 15:22:20;;;;;;;4.38;3.50;;;20.90;61.40;;;;;;4977885;28;20030;-86
2022/05/02 15:25:06;;;;;;;5.95;3.65;;;20.90;61.30;;;;;;4963425;28;20050;-86
2022/05/02 15:38:28;;;;;;;7.80;4.20;;;20.70;61.00;;;;;;4993824;28;20041;-83
2022/05/02 15:40:53;;;;;;;4.20;3.47;;;20.60;61.00;;;;;;4976755;28;20031;-83
2022/05/02 15:43:21;;;;;;;6.45;4.30;;;20.50;61.20;;;;;;4975671;28;20038;-85
2022/05/02 15:45:48;;;;;;;5.82;4.03;;;20.50;61.20;;;;;;4994986;28;20030;-84
2022/05/02 15:48:34;;;;;;;5.70;3.70;;;20.40;61.60;;;;;;4977889;28;20113;-85
2022/05/02 15:51:21;;;;;;;4.93;4.22;;;20.40;61.90;;;;;;4973451;28;20035;-83
2022/05/02 15:53:46;;;;;;;5.40;3.78;;;20.40;61.80;;;;;;4957814;29;20042;-83
2022/05/02 15:56:19;;;;;;;4.57;4.00;;;20.40;62.50;;;;;;4955945;28;20029;-83
2022/05/02 15:59:15;;;;;;;4.93;3.80;;;20.40;62.00;;;;;;4941824;28;20019;-84
2022/05/02 16:01:55;;;;;;;8.07;4.93;;;20.30;62.20;;;;;;4957633;28;20034;-85
2022/05/02 16:04:22;;;;;;;6.78;5.00;;;20.30;62.70;;;;;;4969189;28;20046;-85
2022/05/02 16:06:50;;;;;;;6.18;5.10;;;20.20;63.10;;;;;;4976460;28;20023;-85
2022/05/02 16:12:08;;;;;;;7.55;5.65;;;19.90;63.80;;;;;;4973365;28;20042;-84
2022/05/02 16:14:41;;;;;;;6.03;5.40;;;19.80;64.10;;;;;;4956828;28;20083;-82
2022/05/02 16:17:08;;;;;;;6.28;5.32;;;19.80;64.60;;;;;;4975265;28;20026;-86
2022/05/02 16:19:39;;;;;;;5.65;5.00;;;19.70;64.80;;;;;;4956026;28;20023;-84
2022/05/02 16:22:06;;;;;;;9.00;5.88;;;19.70;64.80;;;;;;4973215;28;20023;-85
2022/05/02 16:24:54;;;;;;;10.45;5.78;;;19.60;64.80;;;;;;4956846;28;20290;-84
2022/05/02 16:27:21;;;;;;;7.90;5.78;;;19.60;65.20;;;;;;4957769;28;20391;-83
2022/05/02 16:30:00;;;;;;;11.77;6.13;;;19.60;65.50;;;;;;4956956;28;20121;-82
2022/05/02 16:32:26;;;;;;;6.80;5.55;;;19.50;65.90;;;;;;4974765;28;20126;-83
2022/05/02 16:34:52;;;;;;;7.60;5.82;;;19.40;65.40;;;;;;4957729;28;20502;-83
2022/05/02 16:37:20;;;;;;;6.50;5.55;;;19.40;65.60;;;;;;4968103;28;20026;-81
2022/05/02 16:39:49;;;;;;;6.00;5.50;;;19.40;65.90;;;;;;4946580;28;20035;-82
2022/05/02 16:42:15;;;;;;;6.70;5.28;;;19.30;66.00;;;;;;4952350;28;20034;-83
2022/05/02 16:44:43;;;;;;;8.60;4.70;;;19.40;66.00;;;;;;4969519;28;20506;-82
2022/05/02 16:47:08;;;;;;;6.10;5.28;;;19.30;65.90;;;;;;4994597;28;20061;-82
2022/05/02 16:49:41;;;;;;;5.82;5.10;;;19.30;65.80;;;;;;4966549;28;20499;-83
2022/05/02 16:52:07;;;;;;;6.13;5.53;;;19.30;66.30;;;;;;4957959;28;20027;-83
2022/05/02 16:54:33;;;;;;;7.13;5.93;;;19.40;65.70;;;;;;4974507;28;20027;-83
2022/05/02 16:56:59;;;;;;;7.78;5.50;;;19.40;65.70;;;;;;4961401;28;20027;-83
2022/05/02 16:59:25;;;;;;;6.65;5.93;;;19.30;65.60;;;;;;4944708;28;20065;-83
2022/05/02 17:01:53;;;;;;;8.48;5.85;;;19.40;65.80;;;;;;4971765;28;20109;-82
2022/05/02 17:04:19;;;;;;;6.93;6.20;;;19.40;65.90;;;;;;4962984;28;20442;-83
2022/05/02 17:06:46;;;;;;;14.68;9.73;;;19.40;65.90;;;;;;4976751;28;20018;-84
2022/05/02 17:09:20;;;;;;;6.65;5.35;;;19.40;65.90;;;;;;4990736;28;20027;-83
2022/05/02 17:11:45;;;;;;;5.95;5.05;;;19.40;66.20;;;;;;4962722;28;20027;-83
2022/05/02 17:14:13;;;;;;;6.22;5.43;;;19.30;66.10;;;;;;4957948;28;20030;-84
2022/05/02 17:16:45;;;;;;;5.93;5.00;;;19.30;66.40;;;;;;4957108;28;20023;-85
2022/05/02 17:19:21;;;;;;;5.93;4.53;;;19.20;66.60;;;;;;4961479;28;20090;-83
2022/05/02 17:21:49;;;;;;;6.15;5.20;;;19.20;66.70;;;;;;4976135;28;20037;-83
2022/05/02 17:24:20;;;;;;;7.45;4.60;;;19.20;66.60;;;;;;4977686;28;20148;-83
2022/05/02 17:26:56;;;;;;;6.03;4.35;;;19.10;66.70;;;;;;4963941;28;20456;-82
2022/05/02 17:29:23;;;;;;;4.78;4.25;;;19.10;66.90;;;;;;4941786;28;20034;-83